Time;durP1;ratioP1;P1;durP2;ratioP2;P2;SDS_P1;SDS_P2;PMS_P1;PMS_P2;Temp;Humidity;BMP_temperature;BMP_pressure;BME280_temperature;BME280_humidity;BME280_pressure;Samples;Min_cycle;Max_cycle;Signal;HPM_P1;HPM_P2
2022/09/01 00:00:50;;;;;;;9.48;8.35;;;21.80;83.90;;;;;;5019710;28;20018;-61
2022/09/01 00:03:17;;;;;;;10.32;7.97;;;21.70;83.80;;;;;;5032393;28;20045;-62
2022/09/01 00:05:44;;;;;;;12.38;6.35;;;21.70;83.80;;;;;;5032711;28;20037;-61
2022/09/01 00:08:10;;;;;;;8.52;5.85;;;21.70;83.90;;;;;;5016653;28;20037;-61
2022/09/01 00:10:35;;;;;;;8.07;5.93;;;21.70;83.90;;;;;;5033870;28;20533;-62
2022/09/01 00:13:03;;;;;;;6.72;5.43;;;21.70;83.90;;;;;;5033055;28;20029;-61
2022/09/01 00:15:28;;;;;;;9.00;5.40;;;21.70;83.90;;;;;;5032141;28;20029;-62
2022/09/01 00:17:54;;;;;;;7.93;5.25;;;21.70;84.00;;;;;;5034103;28;20086;-63
2022/09/01 00:20:19;;;;;;;8.25;5.57;;;21.60;84.00;;;;;;5032052;28;20539;-61
2022/09/01 00:22:45;;;;;;;8.45;5.30;;;21.60;84.00;;;;;;5030027;28;20762;-62
2022/09/01 00:25:11;;;;;;;7.22;5.80;;;21.60;84.10;;;;;;5034982;28;20036;-61
2022/09/01 00:27:36;;;;;;;9.63;5.57;;;21.60;84.20;;;;;;5039392;28;20476;-64
2022/09/01 00:30:02;;;;;;;7.30;5.43;;;21.60;84.30;;;;;;5035130;28;20492;-62
2022/09/01 00:32:27;;;;;;;7.53;5.28;;;21.60;84.30;;;;;;5023763;28;20067;-62
2022/09/01 00:34:53;;;;;;;8.07;5.07;;;21.60;84.20;;;;;;5039584;28;20026;-61
2022/09/01 00:37:18;;;;;;;5.90;4.90;;;21.60;84.30;;;;;;5035248;28;20039;-61
2022/09/01 00:39:44;;;;;;;5.65;4.70;;;21.60;84.40;;;;;;5036278;28;20131;-62
2022/09/01 00:42:10;;;;;;;8.05;5.47;;;21.50;84.50;;;;;;5020746;28;20400;-61
2022/09/01 00:44:37;;;;;;;7.25;5.10;;;21.50;84.50;;;;;;5034983;28;20099;-61
2022/09/01 00:47:05;;;;;;;8.52;5.20;;;21.50;84.60;;;;;;5035073;28;20029;-62
2022/09/01 00:49:32;;;;;;;5.90;5.35;;;21.50;84.60;;;;;;5034163;28;20025;-62
2022/09/01 00:52:26;;;;;;;6.43;5.35;;;21.50;84.60;;;;;;5030662;28;20154;-64
2022/09/01 00:54:55;;;;;;;7.78;5.35;;;21.50;84.60;;;;;;5035757;28;20287;-61
2022/09/01 00:57:20;;;;;;;8.52;5.05;;;21.50;84.60;;;;;;5035337;28;20035;-62
2022/09/01 00:59:50;;;;;;;9.50;4.55;;;21.40;84.60;;;;;;5017073;28;20033;-61
2022/09/01 01:02:16;;;;;;;5.55;4.55;;;21.40;84.70;;;;;;5034142;28;20029;-61
2022/09/01 01:04:42;;;;;;;6.35;4.97;;;21.40;84.70;;;;;;5034299;28;20107;-61
2022/09/01 01:07:08;;;;;;;13.05;5.82;;;21.40;84.80;;;;;;5017802;28;20032;-61
2022/09/01 01:09:35;;;;;;;12.45;5.78;;;21.40;84.80;;;;;;5034954;28;20380;-61
2022/09/01 01:12:02;;;;;;;6.53;5.30;;;21.40;84.80;;;;;;5031297;28;20100;-62
2022/09/01 01:14:30;;;;;;;8.52;6.10;;;21.40;84.80;;;;;;5021489;28;20032;-62
2022/09/01 01:16:56;;;;;;;9.93;6.05;;;21.40;84.90;;;;;;5035791;28;20472;-61
2022/09/01 01:25:22;;;;;;;8.40;5.47;;;21.30;84.90;;;;;;5035629;28;20890;-61
2022/09/01 01:27:48;;;;;;;6.30;5.05;;;21.20;84.90;;;;;;5033936;28;20029;-61
2022/09/01 01:30:16;;;;;;;10.02;5.32;;;21.20;85.00;;;;;;5034323;28;20032;-61
2022/09/01 01:32:42;;;;;;;6.20;5.28;;;21.20;85.00;;;;;;5032029;28;20017;-61
2022/09/01 01:35:13;;;;;;;7.75;4.97;;;21.20;85.00;;;;;;5030340;28;20032;-61
2022/09/01 01:37:44;;;;;;;8.35;5.60;;;21.20;85.00;;;;;;5018081;28;20107;-62
2022/09/01 01:40:14;;;;;;;7.70;5.60;;;21.10;85.00;;;;;;5021289;28;20021;-61
2022/09/01 01:42:44;;;;;;;6.95;4.97;;;21.10;85.00;;;;;;5016689;28;20036;-61
2022/09/01 01:45:11;;;;;;;7.53;5.05;;;21.20;85.10;;;;;;5035489;28;20408;-62
2022/09/01 01:47:37;;;;;;;5.88;5.28;;;21.10;85.20;;;;;;5015927;28;20044;-61
2022/09/01 01:50:08;;;;;;;7.15;5.40;;;21.10;85.20;;;;;;5034218;28;20029;-61
2022/09/01 01:52:34;;;;;;;5.28;4.78;;;21.10;85.20;;;;;;5020858;28;20910;-61
2022/09/01 01:55:00;;;;;;;9.32;5.30;;;21.10;85.20;;;;;;5032800;28;20033;-62
2022/09/01 01:57:30;;;;;;;6.68;4.85;;;21.10;85.20;;;;;;5017387;28;20388;-63
2022/09/01 01:59:56;;;;;;;9.27;5.00;;;21.00;85.20;;;;;;5035765;28;20025;-62
2022/09/01 02:02:21;;;;;;;7.60;5.28;;;21.10;85.20;;;;;;5035404;28;20246;-62
2022/09/01 02:04:47;;;;;;;7.78;5.30;;;21.00;85.20;;;;;;5031144;28;20432;-61
2022/09/01 02:07:12;;;;;;;7.13;5.75;;;21.00;85.30;;;;;;5038700;28;20051;-61
2022/09/01 02:09:39;;;;;;;7.18;5.03;;;21.00;85.30;;;;;;5032520;28;20044;-61
2022/09/01 02:12:06;;;;;;;6.70;5.00;;;21.00;85.40;;;;;;5030559;28;20066;-62
2022/09/01 02:14:32;;;;;;;6.50;4.88;;;21.00;85.40;;;;;;5032594;28;20043;-61
2022/09/01 02:16:57;;;;;;;7.03;4.93;;;21.00;85.30;;;;;;5036319;28;20030;-62
2022/09/01 02:19:23;;;;;;;18.13;6.10;;;21.00;86.00;;;;;;5032686;28;20059;-61
2022/09/01 02:21:53;;;;;;;52.72;10.57;;;20.90;85.30;;;;;;5019217;28;20847;-62
2022/09/01 02:24:19;;;;;;;28.48;6.43;;;20.90;85.50;;;;;;5035631;28;20029;-62
2022/09/01 02:26:47;;;;;;;17.17;6.18;;;20.90;85.40;;;;;;5032833;28;20607;-62
2022/09/01 02:29:20;;;;;;;27.63;7.28;;;20.90;85.40;;;;;;5035432;28;20161;-62
2022/09/01 02:31:47;;;;;;;29.05;7.93;;;20.90;85.40;;;;;;5032374;28;20033;-62
2022/09/01 02:34:13;;;;;;;27.75;7.53;;;20.80;85.40;;;;;;5030946;28;20021;-61
2022/09/01 02:36:49;;;;;;;26.83;8.32;;;20.90;85.40;;;;;;5033966;28;20102;-61
2022/09/01 02:39:19;;;;;;;29.38;9.18;;;20.80;85.30;;;;;;5031446;28;20020;-62
2022/09/01 02:41:45;;;;;;;31.35;8.30;;;20.80;85.40;;;;;;5032402;28;20147;-61
2022/09/01 02:44:11;;;;;;;29.70;9.00;;;20.80;85.50;;;;;;5032482;28;20109;-62
2022/09/01 02:46:40;;;;;;;26.80;8.10;;;20.80;85.50;;;;;;5032908;28;20036;-62
2022/09/01 02:49:18;;;;;;;30.90;8.38;;;20.80;85.50;;;;;;5018923;28;20480;-61
2022/09/01 02:51:45;;;;;;;30.98;9.40;;;20.70;85.40;;;;;;5031998;28;20067;-61
2022/09/01 02:54:15;;;;;;;28.52;8.95;;;20.70;85.50;;;;;;5020373;28;20055;-61
2022/09/01 02:56:40;;;;;;;29.65;8.25;;;20.70;85.40;;;;;;5032033;28;20106;-61
2022/09/01 02:59:10;;;;;;;32.58;8.70;;;20.70;85.60;;;;;;5035188;28;20060;-62
2022/09/01 03:01:36;;;;;;;22.90;7.90;;;20.70;85.70;;;;;;5014538;28;20151;-62
2022/09/01 03:04:04;;;;;;;29.55;7.88;;;20.70;85.70;;;;;;5028646;28;20040;-62
2022/09/01 03:06:32;;;;;;;22.48;8.73;;;20.90;85.80;;;;;;5004442;28;20032;-62
2022/09/01 03:08:59;;;;;;;31.60;9.07;;;20.70;85.70;;;;;;5031935;28;20029;-62
2022/09/01 03:11:24;;;;;;;26.40;8.43;;;20.70;85.70;;;;;;5015976;28;20409;-61
2022/09/01 03:13:50;;;;;;;20.50;8.63;;;20.60;85.60;;;;;;5017570;28;20025;-64
2022/09/01 03:16:16;;;;;;;23.30;8.18;;;20.70;85.70;;;;;;5033827;28;20033;-62
2022/09/01 03:18:44;;;;;;;21.30;8.07;;;20.70;85.70;;;;;;5019820;28;20110;-61
2022/09/01 03:21:13;;;;;;;19.70;8.40;;;20.60;85.70;;;;;;5030759;28;20501;-62
2022/09/01 03:23:39;;;;;;;17.70;8.18;;;20.60;85.70;;;;;;5031131;28;20034;-61
2022/09/01 03:26:04;;;;;;;23.35;7.18;;;20.60;85.60;;;;;;5033873;28;20045;-62
2022/09/01 03:28:30;;;;;;;27.92;7.88;;;20.60;85.60;;;;;;5032031;28;20040;-61
2022/09/01 03:30:56;;;;;;;20.17;7.97;;;20.60;85.70;;;;;;5031675;28;20064;-61
2022/09/01 03:33:22;;;;;;;23.73;7.70;;;20.60;85.70;;;;;;5000826;28;20488;-61
2022/09/01 03:35:48;;;;;;;23.10;7.68;;;20.80;85.90;;;;;;5033452;28;20082;-62
2022/09/01 03:38:20;;;;;;;17.95;6.60;;;20.60;85.60;;;;;;5035043;28;20450;-61
2022/09/01 03:40:46;;;;;;;20.55;7.47;;;20.60;85.60;;;;;;5017574;28;20033;-61
2022/09/01 03:43:12;;;;;;;19.52;6.95;;;20.50;85.50;;;;;;5031669;28;20029;-62
2022/09/01 03:45:38;;;;;;;15.82;6.45;;;20.60;85.60;;;;;;5033170;28;20025;-62
2022/09/01 03:48:07;;;;;;;19.85;7.32;;;20.60;85.70;;;;;;5013706;28;20083;-61
2022/09/01 03:50:37;;;;;;;20.58;7.40;;;20.60;85.60;;;;;;5031733;28;20032;-62
2022/09/01 03:53:03;;;;;;;22.58;7.03;;;20.60;85.70;;;;;;5034633;28;20101;-63
2022/09/01 03:55:31;;;;;;;18.13;7.20;;;20.50;85.80;;;;;;5032997;28;20415;-61
2022/09/01 03:57:59;;;;;;;21.25;7.35;;;20.50;85.70;;;;;;5032584;28;20060;-62
2022/09/01 04:00:28;;;;;;;13.25;5.82;;;20.60;85.70;;;;;;5032998;28;20029;-61
2022/09/01 04:02:56;;;;;;;15.48;6.38;;;20.60;85.60;;;;;;5038823;28;20024;-61
2022/09/01 04:05:27;;;;;;;8.82;6.50;;;20.60;85.60;;;;;;5020867;28;20029;-62
2022/09/01 04:07:57;;;;;;;17.95;6.43;;;20.60;85.60;;;;;;5038242;28;20029;-61
2022/09/01 04:10:22;;;;;;;11.65;6.68;;;20.50;85.50;;;;;;5017812;28;20063;-62
2022/09/01 04:12:48;;;;;;;19.23;6.50;;;20.50;85.50;;;;;;5032462;28;20124;-61
2022/09/01 04:15:14;;;;;;;13.48;6.95;;;20.50;85.40;;;;;;5035587;28;20045;-61
2022/09/01 04:20:23;;;;;;;18.23;5.90;;;20.50;85.30;;;;;;5033124;28;20443;-62
2022/09/01 04:22:50;;;;;;;11.77;6.47;;;20.50;85.30;;;;;;5033200;28;20041;-61
2022/09/01 04:25:18;;;;;;;14.82;6.57;;;20.50;85.20;;;;;;5021668;28;20024;-62
2022/09/01 04:27:46;;;;;;;13.20;6.35;;;20.50;85.10;;;;;;5034462;28;20037;-61
2022/09/01 04:30:11;;;;;;;12.70;6.97;;;20.40;85.00;;;;;;5033532;28;20074;-65
2022/09/01 04:32:39;;;;;;;9.95;6.63;;;20.40;85.00;;;;;;5035468;28;20432;-62
2022/09/01 04:35:05;;;;;;;14.05;6.53;;;20.40;85.00;;;;;;5035470;28;20029;-62
2022/09/01 04:37:31;;;;;;;9.20;5.97;;;20.40;84.90;;;;;;5033905;28;20044;-61
2022/09/01 04:39:57;;;;;;;18.27;6.95;;;20.40;84.90;;;;;;5004121;28;20043;-61
2022/09/01 04:42:24;;;;;;;10.52;6.20;;;20.40;84.90;;;;;;5033467;28;20461;-61
2022/09/01 04:44:50;;;;;;;9.07;5.93;;;20.40;84.90;;;;;;5035248;28;20579;-62
2022/09/01 04:47:18;;;;;;;11.73;6.82;;;20.40;84.80;;;;;;5036956;28;20102;-61
2022/09/01 04:49:46;;;;;;;7.45;5.60;;;20.40;84.80;;;;;;5033522;28;20037;-61
2022/09/01 04:52:11;;;;;;;11.43;5.88;;;20.40;84.90;;;;;;5035808;28;20033;-62
2022/09/01 04:54:37;;;;;;;8.60;5.80;;;20.40;85.40;;;;;;5018740;28;20044;-61
2022/09/01 04:57:05;;;;;;;10.50;5.95;;;20.40;84.80;;;;;;5035524;28;20128;-61
2022/09/01 04:59:31;;;;;;;7.18;5.07;;;20.40;84.70;;;;;;5032227;28;20029;-61
2022/09/01 05:01:58;;;;;;;9.95;5.45;;;20.40;84.70;;;;;;5032359;28;20032;-62
2022/09/01 05:04:26;;;;;;;11.98;6.03;;;20.40;84.70;;;;;;5029360;28;20021;-61
2022/09/01 05:06:56;;;;;;;165.68;18.38;;;20.40;84.70;;;;;;5025115;28;20396;-62
2022/09/01 05:09:23;;;;;;;43.17;9.18;;;20.40;84.70;;;;;;5030389;28;20029;-61
2022/09/01 05:11:49;;;;;;;48.45;8.70;;;20.40;84.70;;;;;;5030880;28;20029;-61
2022/09/01 05:14:20;;;;;;;20.50;6.40;;;20.40;84.70;;;;;;5015193;28;20511;-61
2022/09/01 05:16:45;;;;;;;37.25;9.13;;;20.40;84.70;;;;;;5025396;28;20924;-62
2022/09/01 05:19:13;;;;;;;25.45;7.25;;;20.40;84.60;;;;;;5028468;28;20043;-62
2022/09/01 05:21:44;;;;;;;27.58;6.75;;;20.30;84.60;;;;;;5029478;28;20025;-62
2022/09/01 05:24:10;;;;;;;28.20;7.53;;;20.40;84.60;;;;;;5030150;28;20036;-63
2022/09/01 05:26:37;;;;;;;23.23;6.55;;;20.40;84.60;;;;;;5026961;28;20048;-61
2022/09/01 05:29:03;;;;;;;37.47;7.45;;;20.40;84.60;;;;;;5018202;28;20037;-61
2022/09/01 05:31:33;;;;;;;32.72;7.15;;;20.40;84.50;;;;;;5031835;28;20029;-61
2022/09/01 05:34:00;;;;;;;23.83;7.07;;;20.30;84.40;;;;;;5012172;28;20024;-62
2022/09/01 05:36:26;;;;;;;51.53;8.45;;;20.40;84.50;;;;;;5017237;28;20127;-61
2022/09/01 05:38:52;;;;;;;94.75;13.50;;;20.40;84.50;;;;;;5016132;28;20140;-62
2022/09/01 05:41:19;;;;;;;73.70;9.68;;;20.30;84.40;;;;;;5031365;28;20064;-61
2022/09/01 05:43:47;;;;;;;56.83;9.95;;;20.40;84.40;;;;;;5014960;28;20127;-62
2022/09/01 05:46:16;;;;;;;52.50;9.27;;;20.40;84.30;;;;;;5034166;28;20029;-61
2022/09/01 05:48:42;;;;;;;31.77;8.00;;;20.40;84.30;;;;;;5028862;28;20144;-62
2022/09/01 05:51:09;;;;;;;37.47;7.03;;;20.40;84.20;;;;;;5033046;28;21235;-61
2022/09/01 05:53:36;;;;;;;34.35;8.30;;;20.40;84.20;;;;;;5016288;28;20129;-62
2022/09/01 05:56:06;;;;;;;39.00;7.55;;;20.40;84.20;;;;;;5030605;28;20419;-61
2022/09/01 05:58:33;;;;;;;47.20;9.02;;;20.50;84.30;;;;;;5031203;28;20067;-62
2022/09/01 06:00:59;;;;;;;41.85;8.05;;;20.40;84.20;;;;;;5031521;28;20060;-62
2022/09/01 06:03:26;;;;;;;56.92;9.05;;;20.50;84.20;;;;;;5033127;28;20688;-62
2022/09/01 06:05:52;;;;;;;46.95;8.32;;;20.50;84.90;;;;;;5014799;28;20086;-61
2022/09/01 06:08:19;;;;;;;45.88;9.15;;;20.40;84.20;;;;;;5031967;28;20079;-62
2022/09/01 06:10:45;;;;;;;37.42;8.25;;;20.40;84.20;;;;;;5035094;28;20044;-62
2022/09/01 06:13:14;;;;;;;60.47;9.73;;;20.40;84.60;;;;;;5034373;28;20013;-62
2022/09/01 06:15:40;;;;;;;41.83;7.80;;;20.40;84.30;;;;;;5031546;28;20072;-62
2022/09/01 06:18:07;;;;;;;31.02;8.13;;;20.40;84.20;;;;;;5027789;28;20477;-62
2022/09/01 06:20:33;;;;;;;46.00;8.35;;;20.40;84.30;;;;;;5028735;28;20111;-62
2022/09/01 06:22:59;;;;;;;42.92;8.15;;;20.40;84.40;;;;;;5021627;28;20443;-61
2022/09/01 06:25:29;;;;;;;26.83;7.25;;;20.30;84.30;;;;;;5034457;28;20120;-62
2022/09/01 06:27:55;;;;;;;34.17;7.72;;;20.40;84.30;;;;;;5023372;28;20128;-62
2022/09/01 06:30:21;;;;;;;31.50;7.18;;;20.40;84.30;;;;;;5028986;28;20071;-62
2022/09/01 06:32:48;;;;;;;31.27;7.28;;;20.40;84.40;;;;;;5030315;28;20469;-63
2022/09/01 06:35:14;;;;;;;25.67;7.10;;;20.40;84.40;;;;;;5033864;28;20408;-63
2022/09/01 06:37:42;;;;;;;30.95;7.72;;;20.40;84.40;;;;;;5026452;28;20033;-65
2022/09/01 06:40:09;;;;;;;26.63;6.55;;;20.40;84.40;;;;;;5028987;28;20046;-63
2022/09/01 06:42:36;;;;;;;21.48;6.72;;;20.30;84.50;;;;;;5023654;28;20396;-62
2022/09/01 06:45:02;;;;;;;18.27;6.82;;;20.30;84.50;;;;;;5030490;28;20130;-63
2022/09/01 06:47:28;;;;;;;17.30;6.72;;;20.30;84.70;;;;;;5027182;28;20572;-64
2022/09/01 06:49:58;;;;;;;21.05;6.20;;;20.30;84.80;;;;;;5032088;28;20041;-63
2022/09/01 06:52:24;;;;;;;24.88;7.00;;;20.30;84.80;;;;;;5013990;28;20029;-62
2022/09/01 06:54:52;;;;;;;22.98;7.25;;;20.20;85.00;;;;;;5029113;28;20071;-64
2022/09/01 06:57:17;;;;;;;21.85;7.60;;;20.20;85.20;;;;;;5016639;28;20037;-64
2022/09/01 06:59:43;;;;;;;18.60;7.10;;;20.10;85.30;;;;;;5019647;28;20186;-63
2022/09/01 07:02:10;;;;;;;16.08;6.93;;;20.10;85.50;;;;;;5014618;28;20641;-62
2022/09/01 07:04:41;;;;;;;18.30;6.32;;;20.10;85.80;;;;;;5022794;28;20033;-62
2022/09/01 07:07:09;;;;;;;27.70;7.30;;;20.10;85.70;;;;;;4996431;28;20041;-62
2022/09/01 07:09:34;;;;;;;27.30;6.75;;;20.20;85.60;;;;;;5021976;28;20041;-62
2022/09/01 07:12:02;;;;;;;20.85;6.05;;;20.20;85.60;;;;;;5031116;28;20374;-62
2022/09/01 07:14:28;;;;;;;16.65;6.13;;;20.20;85.30;;;;;;5029231;28;20032;-62
2022/09/01 07:16:54;;;;;;;26.00;6.43;;;20.30;85.20;;;;;;5011843;28;20028;-62
2022/09/01 07:19:19;;;;;;;23.27;6.28;;;20.30;85.10;;;;;;5011580;28;20037;-62
2022/09/01 07:21:45;;;;;;;25.30;7.50;;;20.30;85.10;;;;;;5025846;28;20044;-64
2022/09/01 07:24:11;;;;;;;22.45;7.35;;;20.30;85.20;;;;;;5004215;28;20060;-62
2022/09/01 07:26:37;;;;;;;28.65;7.45;;;20.40;85.30;;;;;;5024720;28;20046;-63
2022/09/01 07:29:04;;;;;;;31.10;7.55;;;20.40;85.20;;;;;;5008923;28;20045;-62
2022/09/01 07:31:33;;;;;;;27.58;8.13;;;20.40;85.30;;;;;;5020203;28;20047;-64
2022/09/01 07:34:00;;;;;;;33.10;8.07;;;20.40;85.50;;;;;;5010423;28;20060;-63
2022/09/01 07:36:26;;;;;;;27.52;8.05;;;20.40;85.40;;;;;;5020683;28;20045;-63
2022/09/01 07:38:52;;;;;;;37.50;8.98;;;20.40;85.30;;;;;;5019499;28;20037;-63
2022/09/01 07:41:23;;;;;;;27.58;8.27;;;20.40;85.40;;;;;;5025244;28;20090;-63
2022/09/01 07:43:51;;;;;;;44.42;8.98;;;20.40;85.50;;;;;;5026772;28;20049;-62
2022/09/01 07:46:17;;;;;;;33.22;8.27;;;20.40;85.40;;;;;;5024351;28;20055;-65
2022/09/01 07:48:43;;;;;;;22.08;7.60;;;20.50;85.50;;;;;;5029880;28;20021;-62
2022/09/01 07:51:11;;;;;;;33.22;8.13;;;20.50;85.50;;;;;;5025639;28;20045;-62
2022/09/01 07:53:37;;;;;;;53.78;10.30;;;20.50;85.70;;;;;;5013607;28;20032;-62
2022/09/01 07:56:08;;;;;;;33.78;9.25;;;20.40;85.70;;;;;;5025598;28;20052;-62
2022/09/01 07:58:34;;;;;;;48.30;9.88;;;20.40;85.80;;;;;;5004829;28;20013;-62
2022/09/01 08:01:02;;;;;;;38.22;9.18;;;20.50;85.90;;;;;;5023609;28;20083;-62
2022/09/01 08:03:28;;;;;;;37.38;8.45;;;20.40;86.60;;;;;;5025443;28;20083;-63
2022/09/01 08:05:58;;;;;;;38.17;9.50;;;20.40;86.00;;;;;;5009131;28;20056;-63
2022/09/01 08:08:23;;;;;;;54.70;8.80;;;20.40;85.90;;;;;;5009219;28;20066;-63
2022/09/01 08:10:49;;;;;;;26.05;7.55;;;20.40;85.90;;;;;;5010616;28;20105;-63
2022/09/01 08:13:15;;;;;;;51.15;8.27;;;20.50;85.90;;;;;;5026937;28;20032;-63
2022/09/01 08:15:41;;;;;;;40.63;9.07;;;20.40;86.00;;;;;;5022868;28;20138;-63
2022/09/01 08:18:07;;;;;;;36.67;8.15;;;20.40;86.00;;;;;;5023377;28;20037;-63
2022/09/01 08:20:38;;;;;;;32.03;8.40;;;20.40;85.90;;;;;;5003802;28;20029;-63
2022/09/01 08:23:03;;;;;;;29.98;7.97;;;20.40;85.80;;;;;;5018938;28;20067;-63
2022/09/01 08:25:29;;;;;;;34.63;7.78;;;20.50;85.60;;;;;;4987994;28;20123;-63
2022/09/01 08:27:55;;;;;;;38.47;8.85;;;20.50;85.60;;;;;;4988029;28;21161;-63
2022/09/01 08:30:21;;;;;;;34.70;7.93;;;20.50;85.30;;;;;;5015303;28;20034;-63
2022/09/01 08:32:46;;;;;;;31.38;7.22;;;20.60;85.30;;;;;;5024438;28;20073;-63
2022/09/01 08:35:14;;;;;;;34.03;8.15;;;20.60;85.30;;;;;;5021613;28;20036;-63
2022/09/01 08:37:40;;;;;;;45.05;8.77;;;20.60;85.10;;;;;;5004445;28;20045;-62
2022/09/01 08:40:06;;;;;;;31.33;7.97;;;20.60;84.90;;;;;;5022450;28;20397;-62
2022/09/01 08:43:04;;;;;;;30.90;7.32;;;20.70;84.80;;;;;;5023313;28;20235;-61
2022/09/01 08:45:53;;;;;;;23.52;7.43;;;20.70;84.60;;;;;;5011057;28;21287;-63
2022/09/01 08:48:30;;;;;;;31.30;7.25;;;20.70;84.30;;;;;;5028017;28;20038;-63
2022/09/01 08:51:02;;;;;;;26.40;7.15;;;20.80;84.20;;;;;;5027984;28;20116;-63
2022/09/01 08:53:35;;;;;;;36.42;7.63;;;20.80;84.10;;;;;;5009898;28;20697;-63
2022/09/01 08:56:00;;;;;;;21.95;6.40;;;20.80;83.90;;;;;;5001494;28;20117;-63
2022/09/01 08:58:29;;;;;;;33.15;7.20;;;20.80;83.90;;;;;;5026870;28;21047;-66
2022/09/01 09:00:56;;;;;;;31.70;7.30;;;20.80;83.60;;;;;;5010009;28;20029;-62
2022/09/01 09:03:44;;;;;;;31.73;6.80;;;20.90;84.40;;;;;;5029261;28;20024;-63
2022/09/01 09:06:24;;;;;;;25.17;7.05;;;20.90;83.50;;;;;;5029239;28;20038;-63
2022/09/01 09:08:56;;;;;;;34.13;6.70;;;20.90;84.10;;;;;;5026308;28;20045;-64
2022/09/01 09:11:43;;;;;;;37.33;6.65;;;21.00;83.30;;;;;;5012833;28;20037;-64
2022/09/01 09:14:31;;;;;;;36.50;7.13;;;21.00;83.20;;;;;;5023558;28;20572;-63
2022/09/01 09:16:57;;;;;;;33.03;6.32;;;21.00;83.00;;;;;;5027179;28;20087;-63
2022/09/01 09:19:41;;;;;;;44.03;7.97;;;21.00;82.80;;;;;;5028464;28;20033;-64
2022/09/01 09:22:09;;;;;;;37.28;8.23;;;21.10;82.80;;;;;;5030065;28;20687;-63
2022/09/01 09:24:49;;;;;;;30.05;7.50;;;21.10;82.70;;;;;;5026996;28;20075;-63
2022/09/01 09:27:28;;;;;;;36.38;7.03;;;21.10;82.50;;;;;;5023542;28;20044;-63
2022/09/01 09:29:58;;;;;;;35.88;6.90;;;21.10;82.40;;;;;;5026861;28;20145;-63
2022/09/01 09:32:48;;;;;;;37.60;7.43;;;21.20;82.00;;;;;;5026779;28;20029;-64
2022/09/01 09:35:35;;;;;;;31.95;6.72;;;21.20;82.00;;;;;;5029100;28;20521;-63
2022/09/01 09:38:19;;;;;;;47.35;8.75;;;21.20;81.90;;;;;;5024700;28;20447;-64
2022/09/01 09:41:18;;;;;;;31.08;6.93;;;21.30;81.60;;;;;;5028546;28;20037;-63
2022/09/01 09:43:48;;;;;;;30.58;7.25;;;21.30;81.70;;;;;;5026965;28;20164;-63
2022/09/01 09:46:32;;;;;;;69.00;9.10;;;21.30;81.50;;;;;;5010286;28;20037;-63
2022/09/01 09:49:19;;;;;;;54.50;9.40;;;21.40;81.50;;;;;;5020586;28;20034;-63
2022/09/01 09:51:50;;;;;;;41.08;7.88;;;21.40;81.40;;;;;;5003103;28;20576;-63
2022/09/01 09:54:18;;;;;;;40.85;7.80;;;21.50;81.40;;;;;;5025739;28;20116;-62
2022/09/01 09:56:44;;;;;;;56.45;8.15;;;21.50;81.40;;;;;;5017964;28;20044;-64
2022/09/01 09:59:26;;;;;;;47.80;8.05;;;21.50;81.30;;;;;;5007608;28;20021;-63
2022/09/01 10:01:57;;;;;;;75.35;10.85;;;21.40;81.30;;;;;;5026508;28;20528;-63
2022/09/01 10:04:36;;;;;;;55.92;9.10;;;21.60;81.40;;;;;;5002278;28;20060;-64
2022/09/01 10:07:23;;;;;;;75.97;10.90;;;21.60;81.20;;;;;;5028148;28;20527;-63
2022/09/01 10:09:49;;;;;;;43.88;8.38;;;21.60;81.20;;;;;;5026557;28;20039;-64
2022/09/01 10:12:15;;;;;;;41.30;7.70;;;21.70;81.00;;;;;;5010600;28;20029;-63
2022/09/01 10:14:42;;;;;;;48.95;8.63;;;21.70;81.00;;;;;;5013564;28;20025;-64
2022/09/01 10:17:12;;;;;;;63.85;8.68;;;21.70;80.90;;;;;;5027929;28;20143;-63
2022/09/01 10:19:40;;;;;;;50.20;8.27;;;21.70;81.00;;;;;;5004618;28;20025;-63
2022/09/01 10:22:06;;;;;;;46.33;7.88;;;21.70;81.00;;;;;;5015731;28;20079;-64
2022/09/01 10:24:35;;;;;;;33.15;7.80;;;21.70;80.80;;;;;;5009020;28;20036;-63
2022/09/01 10:27:09;;;;;;;41.00;8.45;;;21.80;80.50;;;;;;4995326;28;20036;-63
2022/09/01 10:29:46;;;;;;;67.50;9.68;;;21.80;80.30;;;;;;5010673;28;20056;-63
2022/09/01 10:32:25;;;;;;;59.55;8.75;;;21.80;80.00;;;;;;5016853;28;20028;-64
2022/09/01 10:34:50;;;;;;;45.47;7.47;;;21.80;79.60;;;;;;5018868;28;20437;-64
2022/09/01 10:37:16;;;;;;;62.08;9.50;;;21.90;79.40;;;;;;5011323;28;20037;-63
2022/09/01 10:40:27;;;;;;;45.25;8.60;;;21.90;79.60;;;;;;5026386;28;20053;-63
2022/09/01 10:42:55;;;;;;;53.15;8.73;;;21.90;79.40;;;;;;5013526;28;20051;-63
2022/09/01 10:45:38;;;;;;;53.85;8.95;;;22.00;79.10;;;;;;5020637;28;20131;-63
2022/09/01 10:48:23;;;;;;;54.83;8.23;;;22.00;79.20;;;;;;5019703;28;20029;-63
2022/09/01 10:50:50;;;;;;;54.50;8.48;;;22.00;79.00;;;;;;5017611;28;20200;-63
2022/09/01 10:53:34;;;;;;;44.55;7.28;;;22.00;78.60;;;;;;5004716;28;20028;-63
2022/09/01 10:56:21;;;;;;;47.13;6.95;;;22.10;78.30;;;;;;5026109;28;20017;-63
2022/09/01 10:59:16;;;;;;;60.03;7.32;;;22.10;77.90;;;;;;5029101;28;20037;-64
2022/09/01 11:01:42;;;;;;;73.82;9.85;;;22.10;78.00;;;;;;5024303;28;20104;-64
2022/09/01 11:04:08;;;;;;;58.67;7.65;;;22.10;77.70;;;;;;5019480;28;22083;-63
2022/09/01 11:06:43;;;;;;;65.72;9.20;;;22.20;77.50;;;;;;5019351;28;20032;-63
2022/09/01 11:09:35;;;;;;;80.38;11.90;;;22.20;77.20;;;;;;5023755;28;20131;-63
2022/09/01 11:12:22;;;;;;;80.82;10.75;;;22.20;77.30;;;;;;5027926;28;20104;-63
2022/09/01 11:14:51;;;;;;;75.00;10.90;;;22.20;77.30;;;;;;5025447;28;20033;-63
2022/09/01 11:17:31;;;;;;;75.28;9.75;;;22.30;77.00;;;;;;5023940;28;20021;-63
2022/09/01 11:20:10;;;;;;;66.75;10.02;;;22.30;77.00;;;;;;5022443;28;20069;-63
2022/09/01 11:22:40;;;;;;;58.85;9.23;;;22.40;77.00;;;;;;5017253;28;20036;-63
2022/09/01 11:25:37;;;;;;;61.13;9.30;;;22.40;76.90;;;;;;5025088;28;20041;-63
2022/09/01 11:28:14;;;;;;;82.15;10.77;;;22.40;76.80;;;;;;5024929;28;20033;-63
2022/09/01 11:30:49;;;;;;;76.68;10.88;;;22.50;77.00;;;;;;5024408;28;20050;-64
2022/09/01 11:33:21;;;;;;;64.30;8.90;;;22.50;76.90;;;;;;5022127;28;20025;-63
2022/09/01 11:35:46;;;;;;;68.93;10.00;;;22.60;76.50;;;;;;5029025;28;20029;-63
2022/09/01 11:38:14;;;;;;;65.72;10.40;;;22.80;76.70;;;;;;5007994;28;20043;-64
2022/09/01 11:40:39;;;;;;;67.70;9.95;;;22.70;76.60;;;;;;5010690;28;20228;-63
2022/09/01 11:43:10;;;;;;;70.70;9.98;;;22.70;76.20;;;;;;5024412;28;20051;-64
2022/09/01 11:45:49;;;;;;;69.00;9.90;;;22.80;76.30;;;;;;5028664;28;20025;-64
2022/09/01 11:48:15;;;;;;;49.85;7.15;;;22.80;75.90;;;;;;5002957;28;20565;-63
2022/09/01 11:50:41;;;;;;;59.58;9.07;;;22.80;75.90;;;;;;5011261;28;20041;-63
2022/09/01 11:53:15;;;;;;;52.35;7.47;;;22.80;75.70;;;;;;5029082;28;20159;-63
2022/09/01 11:55:42;;;;;;;70.72;9.52;;;22.90;75.40;;;;;;5021672;28;20025;-64
2022/09/01 11:58:13;;;;;;;74.38;9.70;;;22.90;75.70;;;;;;5029043;28;20033;-63
2022/09/01 12:00:40;;;;;;;51.78;7.85;;;22.90;75.30;;;;;;5020786;28;20075;-64
2022/09/01 12:03:24;;;;;;;39.25;7.47;;;23.00;74.80;;;;;;5025763;28;20057;-64
2022/09/01 12:06:01;;;;;;;44.95;6.63;;;23.10;74.70;;;;;;5011759;28;20037;-63
2022/09/01 12:08:29;;;;;;;48.85;7.82;;;23.20;74.70;;;;;;5023637;28;20060;-64
2022/09/01 12:11:11;;;;;;;46.25;7.15;;;23.30;74.50;;;;;;5008525;28;21755;-64
2022/09/01 12:13:37;;;;;;;49.58;7.40;;;23.40;73.50;;;;;;5021834;28;20117;-63
2022/09/01 12:16:05;;;;;;;158.98;15.55;;;23.50;74.00;;;;;;5024703;28;20030;-64
2022/09/01 12:18:33;;;;;;;57.72;8.32;;;23.50;73.50;;;;;;5022614;28;20456;-63
2022/09/01 12:21:00;;;;;;;80.07;11.55;;;23.60;73.20;;;;;;5017079;28;20021;-64
2022/09/01 12:23:35;;;;;;;87.45;11.10;;;23.60;73.10;;;;;;5021791;28;20037;-64
2022/09/01 12:26:11;;;;;;;70.72;9.98;;;23.70;73.10;;;;;;5029348;28;20039;-64
2022/09/01 12:28:40;;;;;;;65.22;8.43;;;23.70;72.80;;;;;;5017063;28;20025;-63
2022/09/01 12:31:15;;;;;;;63.35;8.73;;;23.70;72.30;;;;;;5014840;28;20050;-62
2022/09/01 12:33:42;;;;;;;61.88;8.52;;;23.80;72.30;;;;;;5035035;28;20021;-63
2022/09/01 12:36:23;;;;;;;60.83;8.35;;;23.80;72.20;;;;;;5033445;28;20120;-62
2022/09/01 12:38:48;;;;;;;48.08;7.45;;;23.90;72.40;;;;;;5035082;28;20029;-64
2022/09/01 12:41:34;;;;;;;58.17;8.55;;;24.00;71.90;;;;;;5034245;28;20040;-63
2022/09/01 12:44:28;;;;;;;75.03;10.25;;;24.00;72.00;;;;;;5013412;28;20128;-63
2022/09/01 12:46:54;;;;;;;93.10;10.27;;;24.10;71.70;;;;;;5026407;28;20152;-63
2022/09/01 12:49:23;;;;;;;72.68;9.20;;;24.10;71.20;;;;;;5027303;28;21706;-63
2022/09/01 12:52:03;;;;;;;93.85;10.27;;;24.30;71.20;;;;;;5015346;28;20021;-63
2022/09/01 12:54:29;;;;;;;83.15;10.20;;;24.20;70.80;;;;;;5017367;28;20052;-63
2022/09/01 12:56:54;;;;;;;84.88;9.77;;;24.30;70.70;;;;;;5027406;28;20124;-63
2022/09/01 12:59:22;;;;;;;87.28;11.00;;;24.40;70.50;;;;;;5020132;28;21061;-63